Aérodrome :
LOGIN :

S'inscrire | Disclaimer

   EN    FR    IT 

 










Légende :    VFR   VFR Marginal   IFR   IFR Intensif   IFR Très Intensif
Visi : 
Plafond : 
>= 8 km
>= 3000ft
5 à 8 km
1000 à 3000 ft
1500m à 5 km
500 à 1000 ft
800 à 1500m
200 à 500 ft
< 800m
< 200 ft
Symboles :   Orages  Brouillard  Fortes neiges  Fortes précipitations  Vent > 20 kt
SIGMETs :   Divers  Orages  Givrage  Turbulence  Onde Orograph.  Cendres Volcan.






- Altitude de l'aérodrome : 648 ft
- Code IATA : INI


LYNI - Nis Constantine

DERNIER METAR :
  • 180230Z 00000KT 4000 BR BKN003 M03/M03 Q1028 NOSIG

METARs EXPIRÉS :
  • 180200Z VRB02KT 5000 BR BKN003 M03/M03 Q1028 NOSIG
  • 180130Z VRB02KT 4000 BR OVC002 M03/M03 Q1028 NOSIG
  • 180100Z VRB01KT 4000 BR BKN004 M03/M03 Q1028 NOSIG
  • 180030Z VRB02KT 3500 BR OVC004 M03/M03 Q1028 NOSIG

TAF TAF LYNI
Valide du 18 à 00h jusqu'au 19 à 00h UTC


172300Z 1800/1824 05004KT 3000 BR OVC005 TX06/1813Z TNM05/1805Z
TEMPO 1804/1808 0500 FZFG OVC003
BECMG 1809/1811 CAVOK
BECMG 1816/1818 4000 BR



MET'MAP, la Météo Aéronautique d'un coup d'oeil ! - Copyright ORBIFLY Décembre 2007 - Disclaimer

ORBIFLY MET'MAP TEAM :

Programmation & Développement : Alexandra Zaïnal
Sur une idée originale de : Baudouin d'Aumeries
Assistance à la programmation : Marc-Olivier Méhu
Soutien technique & logistique : Manuel Goepfert

Contact : metmap@orbifly.com




SOURCES & CREDITS :

   NOAA